createdAt,value
2022-12-18T00:02:02.439Z,69.90
2022-12-18T00:04:48.076Z,69.80
2022-12-18T00:07:35.710Z,69.40
2022-12-18T00:10:20.975Z,69.50
2022-12-18T00:13:09.893Z,69.10
2022-12-18T00:15:56.777Z,68.70
2022-12-18T00:18:43.369Z,69.30
2022-12-18T00:21:32.819Z,69.60
2022-12-18T00:24:18.563Z,69.20
2022-12-18T00:27:05.557Z,69.20
2022-12-18T00:29:50.798Z,69.00
2022-12-18T00:32:38.861Z,69.30
2022-12-18T00:35:24.466Z,69.60
2022-12-18T00:38:09.915Z,69.30
2022-12-18T00:40:55.636Z,69.50
2022-12-18T00:43:41.893Z,69.40
2022-12-18T00:46:30.568Z,69.50
2022-12-18T00:49:18.751Z,69.20
2022-12-18T00:52:07.182Z,69.20
2022-12-18T00:54:52.286Z,68.80
2022-12-18T00:57:38.016Z,69.20
2022-12-18T01:00:24.170Z,68.60
2022-12-18T01:03:10.634Z,68.70
2022-12-18T01:05:58.291Z,68.80
2022-12-18T01:08:46.428Z,68.70
2022-12-18T01:11:34.789Z,68.70
2022-12-18T01:14:20.388Z,68.70
2022-12-18T01:17:08.567Z,69.50
2022-12-18T01:19:53.834Z,70.00
2022-12-18T01:22:41.976Z,70.00
2022-12-18T01:25:27.685Z,70.60
2022-12-18T01:28:15.592Z,70.40
2022-12-18T01:31:30.477Z,70.10
2022-12-18T01:34:15.950Z,69.50
2022-12-18T01:37:04.590Z,69.30
2022-12-18T01:39:55.243Z,69.10
2022-12-18T01:42:43.168Z,69.20
2022-12-18T01:45:30.501Z,69.20
2022-12-18T01:48:16.029Z,68.90
2022-12-18T01:51:02.079Z,68.50
2022-12-18T01:53:50.790Z,68.90
2022-12-18T01:56:36.160Z,68.80
2022-12-18T01:59:21.898Z,68.70
2022-12-18T02:02:11.976Z,68.80
2022-12-18T02:04:57.728Z,68.90
2022-12-18T02:07:43.258Z,68.40
2022-12-18T02:10:43.163Z,68.30
2022-12-18T02:13:47.602Z,68.30
2022-12-18T02:17:06.401Z,67.30
2022-12-18T02:21:02.345Z,67.90
2022-12-18T02:24:13.241Z,69.00
2022-12-18T02:27:03.979Z,68.50
2022-12-18T02:29:58.564Z,68.60
2022-12-18T02:32:49.718Z,68.40
2022-12-18T02:35:37.006Z,68.70
2022-12-18T02:38:23.543Z,69.10
2022-12-18T02:41:09.121Z,69.10
2022-12-18T02:43:58.447Z,68.90
2022-12-18T02:46:53.396Z,68.60
2022-12-18T02:50:03.417Z,68.30
2022-12-18T02:52:54.387Z,68.30
2022-12-18T02:56:07.707Z,68.10
2022-12-18T02:59:05.650Z,68.20
2022-12-18T03:02:02.596Z,68.00
2022-12-18T03:04:50.608Z,67.90
2022-12-18T03:08:20.755Z,67.70
2022-12-18T03:11:16.554Z,68.00
2022-12-18T03:14:02.823Z,67.70
2022-12-18T03:16:51.996Z,67.70
2022-12-18T03:19:40.131Z,67.20
2022-12-18T03:22:33.097Z,67.90
2022-12-18T03:25:20.491Z,67.70
2022-12-18T03:28:09.477Z,67.30
2022-12-18T03:31:00.571Z,67.30
2022-12-18T03:33:55.660Z,67.00
2022-12-18T03:36:43.828Z,66.60
2022-12-18T03:39:29.135Z,67.00
2022-12-18T03:42:49.896Z,67.20
2022-12-18T03:45:49.298Z,67.20
2022-12-18T03:48:47.871Z,66.40
2022-12-18T03:51:53.603Z,66.70
2022-12-18T03:54:44.129Z,67.40
2022-12-18T03:57:31.307Z,67.40
2022-12-18T04:00:18.807Z,67.20
2022-12-18T04:03:06.782Z,67.20
2022-12-18T04:05:55.151Z,67.40
2022-12-18T04:08:43.735Z,67.40
2022-12-18T04:11:29.059Z,67.80
2022-12-18T04:14:18.237Z,67.70
2022-12-18T04:17:06.934Z,67.50
2022-12-18T04:19:52.241Z,67.70
2022-12-18T04:22:40.007Z,67.70
2022-12-18T04:25:26.694Z,67.80
2022-12-18T04:28:14.641Z,67.60
2022-12-18T04:31:00.171Z,67.30
2022-12-18T04:33:46.133Z,67.00
2022-12-18T04:36:34.170Z,66.80
2022-12-18T04:39:19.556Z,66.60
2022-12-18T04:42:07.130Z,66.80
2022-12-18T04:44:52.321Z,67.00
2022-12-18T04:47:40.331Z,67.30
2022-12-18T04:50:25.543Z,67.00
2022-12-18T04:53:10.647Z,66.90
2022-12-18T04:56:11.730Z,67.10
2022-12-18T04:58:57.378Z,66.80
2022-12-18T05:01:42.972Z,66.60
2022-12-18T05:04:31.806Z,67.10
2022-12-18T05:07:17.145Z,66.90
2022-12-18T05:10:11.878Z,66.90
2022-12-18T05:13:00.359Z,67.00
2022-12-18T05:15:53.346Z,67.00
2022-12-18T05:18:44.803Z,67.00
2022-12-18T05:21:30.142Z,67.00
2022-12-18T05:24:17.652Z,67.10
2022-12-18T05:27:05.117Z,66.50
2022-12-18T05:29:50.345Z,66.80
2022-12-18T05:32:36.005Z,67.80
2022-12-18T05:35:21.526Z,68.20
2022-12-18T05:38:09.736Z,68.80
2022-12-18T05:40:55.586Z,69.60
2022-12-18T05:43:44.046Z,68.80
2022-12-18T05:46:32.109Z,68.30
2022-12-18T05:49:20.586Z,68.90
2022-12-18T05:52:08.720Z,69.20
2022-12-18T05:54:59.959Z,69.10
2022-12-18T05:57:45.653Z,68.90
2022-12-18T06:00:33.128Z,68.90
2022-12-18T06:03:23.427Z,69.60
2022-12-18T06:06:26.482Z,69.40
2022-12-18T06:09:13.834Z,69.00
2022-12-18T06:11:59.093Z,68.60
2022-12-18T06:14:45.151Z,69.00
2022-12-18T06:17:31.950Z,68.40
2022-12-18T06:20:17.617Z,68.40
2022-12-18T06:23:03.909Z,68.50
2022-12-18T06:25:49.295Z,68.50
2022-12-18T06:28:35.011Z,68.40
2022-12-18T06:31:20.331Z,68.90
2022-12-18T06:34:06.228Z,68.70
2022-12-18T06:36:53.912Z,68.60
2022-12-18T06:39:39.552Z,68.50
2022-12-18T06:42:25.895Z,68.30
2022-12-18T06:45:21.305Z,68.20
2022-12-18T06:48:07.485Z,68.00
2022-12-18T06:50:52.613Z,67.70
2022-12-18T06:53:40.456Z,68.10
2022-12-18T06:56:29.011Z,68.40
2022-12-18T06:59:15.616Z,68.20
2022-12-18T07:02:01.173Z,68.20
2022-12-18T07:04:47.322Z,68.20
2022-12-18T07:07:36.858Z,68.30
2022-12-18T07:10:25.459Z,68.50
2022-12-18T07:13:10.871Z,68.50
2022-12-18T07:15:56.340Z,69.00
2022-12-18T07:18:42.093Z,68.90
2022-12-18T07:21:30.208Z,68.80
2022-12-18T07:24:16.080Z,68.60
2022-12-18T07:27:01.730Z,69.00
2022-12-18T07:29:49.897Z,68.60
2022-12-18T07:32:35.600Z,68.60
2022-12-18T07:35:24.947Z,69.00
2022-12-18T07:38:12.911Z,68.80
2022-12-18T07:41:06.531Z,69.00
2022-12-18T07:43:52.698Z,68.20
2022-12-18T07:46:39.119Z,68.10
2022-12-18T07:49:24.240Z,68.10
2022-12-18T07:52:10.460Z,67.80
2022-12-18T07:54:59.236Z,67.90
2022-12-18T07:57:54.295Z,68.10
2022-12-18T08:00:43.238Z,68.00
2022-12-18T08:03:30.712Z,67.70
2022-12-18T08:06:18.187Z,67.70
2022-12-18T08:09:04.046Z,68.00
2022-12-18T08:11:51.756Z,67.00
2022-12-18T08:14:37.463Z,67.60
2022-12-18T08:17:23.610Z,67.40
2022-12-18T08:20:10.359Z,67.30
2022-12-18T08:22:55.946Z,67.10
2022-12-18T08:25:41.635Z,67.20
2022-12-18T08:28:30.038Z,66.90
2022-12-18T08:31:15.526Z,66.90
2022-12-18T08:34:01.399Z,66.90
2022-12-18T08:36:46.684Z,67.20
2022-12-18T08:39:32.310Z,66.90
2022-12-18T08:42:36.485Z,66.80
2022-12-18T08:45:22.193Z,66.60
2022-12-18T08:48:10.304Z,66.40
2022-12-18T08:50:57.003Z,65.90
2022-12-18T08:53:43.482Z,65.80
2022-12-18T08:56:29.158Z,65.80
2022-12-18T08:59:19.528Z,65.90
2022-12-18T09:02:05.707Z,65.80
2022-12-18T09:04:57.798Z,65.90
2022-12-18T09:07:43.627Z,66.00
2022-12-18T09:10:31.779Z,65.20
2022-12-18T09:13:18.358Z,66.00
2022-12-18T09:16:04.712Z,66.60
2022-12-18T09:18:50.820Z,64.90
2022-12-18T09:21:47.844Z,65.00
2022-12-18T09:24:34.843Z,64.80
2022-12-18T09:27:22.263Z,64.50
2022-12-18T09:30:11.397Z,64.70
2022-12-18T09:32:59.763Z,63.80
2022-12-18T09:35:47.192Z,64.50
2022-12-18T09:38:32.920Z,64.70
2022-12-18T09:41:48.415Z,64.10
2022-12-18T09:44:45.516Z,63.60
2022-12-18T09:47:40.682Z,64.00
2022-12-18T09:50:39.836Z,63.70
2022-12-18T09:53:29.096Z,63.20
2022-12-18T09:56:19.538Z,63.60
2022-12-18T09:59:06.292Z,64.20
2022-12-18T10:01:52.357Z,64.70
2022-12-18T10:04:37.813Z,64.60
2022-12-18T10:07:51.198Z,64.90
2022-12-18T10:10:43.071Z,64.50
2022-12-18T10:13:48.404Z,64.50
2022-12-18T10:16:42.591Z,64.10
2022-12-18T10:20:02.607Z,64.80
2022-12-18T10:23:15.301Z,64.30
2022-12-18T10:26:07.444Z,63.60
2022-12-18T10:28:54.574Z,63.60
2022-12-18T10:31:45.781Z,64.10
2022-12-18T10:34:33.061Z,64.20
2022-12-18T10:37:21.613Z,65.80
2022-12-18T10:40:21.882Z,66.20
2022-12-18T10:43:23.148Z,66.70
2022-12-18T10:46:08.632Z,66.60
2022-12-18T10:48:55.528Z,67.60
2022-12-18T10:51:45.787Z,65.90
2022-12-18T10:54:34.077Z,65.30
2022-12-18T10:57:36.623Z,65.60
2022-12-18T11:00:25.848Z,65.60
2022-12-18T11:03:34.040Z,65.60
2022-12-18T11:06:25.436Z,66.60
2022-12-18T11:09:25.568Z,65.90
2022-12-18T11:12:19.373Z,65.70
2022-12-18T11:15:05.424Z,66.80
2022-12-18T11:17:54.994Z,66.30
2022-12-18T11:20:40.504Z,66.20
2022-12-18T11:23:29.517Z,66.30
2022-12-18T11:26:15.367Z,66.50
2022-12-18T16:23:38.982Z,69.00
2022-12-18T16:26:27.495Z,69.40
2022-12-18T16:29:16.034Z,69.40
2022-12-18T16:32:02.029Z,69.40
2022-12-18T16:34:48.336Z,69.30
2022-12-18T16:37:33.627Z,69.30
2022-12-18T16:40:20.425Z,69.20
2022-12-18T16:43:05.609Z,69.20
2022-12-18T16:45:51.274Z,69.00
2022-12-18T16:48:37.691Z,68.80
2022-12-18T16:51:23.716Z,68.90
2022-12-18T16:54:11.774Z,69.00
2022-12-18T16:57:00.891Z,68.90
2022-12-18T16:59:46.959Z,69.30
2022-12-18T17:02:33.133Z,69.60
2022-12-18T17:05:18.855Z,70.00
2022-12-18T17:08:05.158Z,70.10
2022-12-18T17:10:50.647Z,70.40
2022-12-18T17:13:36.315Z,70.60
2022-12-18T17:16:23.029Z,71.20
2022-12-18T17:19:16.884Z,71.10
2022-12-18T17:22:03.338Z,71.70
2022-12-18T17:24:49.328Z,72.10
2022-12-18T17:27:34.738Z,72.40
2022-12-18T17:30:22.287Z,72.90
2022-12-18T17:33:09.815Z,73.20
2022-12-18T17:35:59.681Z,73.20
2022-12-18T17:38:54.797Z,73.50
2022-12-18T17:41:39.992Z,73.70
2022-12-18T17:44:25.462Z,74.00
2022-12-18T17:47:12.126Z,74.30
2022-12-18T17:50:00.529Z,74.40
2022-12-18T17:52:46.337Z,74.40
2022-12-18T17:55:33.987Z,74.50
2022-12-18T17:58:21.587Z,74.10
2022-12-18T18:01:07.726Z,74.40
2022-12-18T18:03:56.383Z,74.30
2022-12-18T18:06:41.859Z,74.20
2022-12-18T18:09:27.532Z,74.30
2022-12-18T18:12:32.111Z,74.30
2022-12-18T18:15:18.269Z,74.60
2022-12-18T18:18:04.452Z,74.50
2022-12-18T18:20:53.966Z,74.60
2022-12-18T18:23:40.508Z,75.10
2022-12-18T18:26:31.961Z,74.30
2022-12-18T18:29:28.620Z,74.30
2022-12-18T18:32:14.845Z,74.20
2022-12-18T18:35:02.760Z,74.40
2022-12-18T18:37:51.199Z,74.40
2022-12-18T18:40:37.243Z,74.50
2022-12-18T18:43:22.743Z,74.50
2022-12-18T18:46:08.112Z,74.60
2022-12-18T18:48:56.809Z,74.40
2022-12-18T18:51:45.271Z,74.60
2022-12-18T18:54:31.110Z,74.60
2022-12-18T18:57:21.117Z,74.60
2022-12-18T19:00:09.779Z,74.60
2022-12-18T19:03:00.648Z,74.40
2022-12-18T19:05:55.863Z,74.60
2022-12-18T19:08:42.546Z,74.60
2022-12-18T19:11:48.728Z,74.60
2022-12-18T19:14:34.268Z,74.50
2022-12-18T19:17:20.038Z,74.40
2022-12-18T19:20:10.263Z,74.30
2022-12-18T19:23:00.081Z,74.20
2022-12-18T19:25:46.327Z,74.00
2022-12-18T19:28:32.585Z,73.80
2022-12-18T19:31:24.810Z,73.60
2022-12-18T19:34:13.563Z,73.50
2022-12-18T19:37:02.637Z,73.00
2022-12-18T19:39:50.801Z,72.80
2022-12-18T19:42:43.856Z,72.70
2022-12-18T19:45:31.444Z,72.40
2022-12-18T19:48:17.029Z,72.30
2022-12-18T19:51:08.139Z,72.30
2022-12-18T19:53:58.410Z,72.30
2022-12-18T19:56:45.324Z,72.20
2022-12-18T19:59:33.261Z,72.10
2022-12-18T20:02:21.837Z,72.00
2022-12-18T20:05:11.402Z,71.90
2022-12-18T20:07:56.794Z,71.90
2022-12-18T20:10:44.834Z,71.90
2022-12-18T20:13:30.886Z,71.70
2022-12-18T20:16:16.520Z,71.60
2022-12-18T20:19:04.199Z,71.60
2022-12-18T20:21:52.478Z,71.60
2022-12-18T20:24:38.029Z,71.50
2022-12-18T20:27:23.763Z,71.50
2022-12-18T20:30:12.546Z,71.10
2022-12-18T20:32:57.856Z,70.90
2022-12-18T20:35:43.646Z,70.70
2022-12-18T20:38:31.091Z,70.70
2022-12-18T20:41:21.377Z,70.70
2022-12-18T20:44:21.694Z,70.70
2022-12-18T20:47:09.270Z,70.70
2022-12-18T20:49:56.617Z,70.60
2022-12-18T20:52:41.895Z,70.60
2022-12-18T20:55:27.888Z,70.60
2022-12-18T20:58:15.194Z,70.60
2022-12-18T21:01:19.449Z,70.50
2022-12-18T21:04:07.643Z,70.40
2022-12-18T21:06:59.187Z,70.30
2022-12-18T21:09:46.177Z,70.10
2022-12-18T21:12:40.289Z,70.00
2022-12-18T21:15:33.845Z,70.00
2022-12-18T21:18:19.260Z,69.80
2022-12-18T21:21:05.445Z,69.50
2022-12-18T21:23:51.208Z,69.40
2022-12-18T21:26:43.391Z,69.40
2022-12-18T21:29:34.850Z,69.40
2022-12-18T21:32:20.637Z,69.30
2022-12-18T21:35:06.789Z,69.30
2022-12-18T21:37:54.575Z,69.30
2022-12-18T21:40:39.969Z,69.30
2022-12-18T21:43:46.675Z,69.30
2022-12-18T21:46:44.470Z,69.30
2022-12-18T21:49:29.984Z,69.20
2022-12-18T21:52:18.225Z,69.20
2022-12-18T21:55:09.102Z,69.20
2022-12-18T21:57:57.462Z,69.00
2022-12-18T22:00:48.371Z,69.00
2022-12-18T22:03:34.351Z,69.00
2022-12-18T22:06:24.939Z,68.60
2022-12-18T22:09:13.163Z,68.60
2022-12-18T22:11:59.006Z,68.60
2022-12-18T22:14:44.312Z,68.60
2022-12-18T22:17:29.926Z,68.50
2022-12-18T22:20:20.970Z,68.40
2022-12-18T22:23:06.576Z,68.10
2022-12-18T22:25:52.349Z,68.10
2022-12-18T22:28:56.357Z,68.00
2022-12-18T22:31:41.960Z,67.90
2022-12-18T22:34:27.815Z,67.80
2022-12-18T22:37:15.634Z,67.80
2022-12-18T22:40:02.959Z,67.90
2022-12-18T22:42:49.251Z,67.90
2022-12-18T22:45:37.985Z,67.70
2022-12-18T22:48:24.261Z,67.70
2022-12-18T22:51:17.069Z,67.70
2022-12-18T22:54:03.657Z,67.60
2022-12-18T22:56:49.511Z,67.60
2022-12-18T22:59:36.795Z,67.50
2022-12-18T23:02:22.236Z,67.30
2022-12-18T23:05:08.661Z,67.40
2022-12-18T23:07:53.764Z,67.40
2022-12-18T23:10:39.863Z,67.50
2022-12-18T23:13:26.438Z,67.60
2022-12-18T23:16:14.316Z,67.50
2022-12-18T23:19:00.545Z,67.80
2022-12-18T23:21:46.061Z,67.80
2022-12-18T23:24:31.500Z,67.80
2022-12-18T23:27:18.123Z,67.70
2022-12-18T23:30:06.891Z,67.80
2022-12-18T23:32:52.099Z,67.70
2022-12-18T23:35:38.101Z,67.70
2022-12-18T23:38:25.850Z,67.80
2022-12-18T23:41:16.935Z,67.80
2022-12-18T23:44:04.348Z,67.70
2022-12-18T23:46:49.526Z,67.60
2022-12-18T23:49:37.128Z,67.60
2022-12-18T23:52:22.845Z,67.60
2022-12-18T23:55:09.691Z,67.50
2022-12-18T23:57:57.353Z,67.40
